DTTA/TUN METAR and TAF weather

Enter ICAO airport designator
Station Type Date Time Source
DTTA METAR 2019/08/25 18:30 UTC NOAA

DTTA 251830Z 19002KT CAVOK 27/20 Q1015


Station Type Date Time Source
DTTA Decoded METAR 2019/08/25 18:30 UTC NOAA

Station name not available
Aug 25, 2019 - 02:30 PM EDT / 2019.08.25 1830 UTC
Wind: from the S (190 degrees) at 2 MPH (2 KT):0
Visibility: greater than 7 mile(s):0
Temperature: 80 F (27 C)
Dew Point: 68 F (20 C)
Relative Humidity: 65%
Pressure (altimeter): 29.97 in. Hg (1015 hPa)
ob: DTTA 251830Z 19002KT CAVOK 27/20 Q1015
cycle: 18

Station Type Date Time Source
DTTA TAF 2019/08/25 18:30 UTC NOAA

TAF DTTA 251700Z 2518/2618 06006KT 9999 SCT030 PROB30
TEMPO 2522/2604 -TSRA SCT030TCU FEW033CB
BECMG 2613/2615 05012KT PROB30
TEMPO 2613/2618 -TSRA FEW030CB

Example: see airport list